Time;durP1;ratioP1;P1;durP2;ratioP2;P2;SDS_P1;SDS_P2;PMS_P1;PMS_P2;Temp;Humidity;BMP_temperature;BMP_pressure;BME280_temperature;BME280_humidity;BME280_pressure;Samples;Min_cycle;Max_cycle;Signal;HPM_P1;HPM_P2
2023/11/06 00:01:01;;;;;;;14.40;9.13;;;15.10;99.90;;;;;;5005067;28;20050;-69
2023/11/06 00:03:28;;;;;;;12.57;6.35;;;15.20;99.90;;;;;;4994996;28;20113;-72
2023/11/06 00:05:55;;;;;;;10.88;6.45;;;15.30;99.90;;;;;;5010227;28;20042;-68
2023/11/06 00:08:25;;;;;;;11.48;5.75;;;14.80;99.90;;;;;;5000730;28;20048;-73
2023/11/06 00:10:53;;;;;;;6.70;4.00;;;14.70;99.90;;;;;;4996206;28;20125;-71
2023/11/06 00:13:20;;;;;;;7.93;4.18;;;15.30;99.90;;;;;;4999847;28;20035;-73
2023/11/06 00:15:47;;;;;;;6.40;3.70;;;15.50;99.90;;;;;;5000126;28;20131;-73
2023/11/06 00:18:14;;;;;;;13.20;5.95;;;15.60;99.90;;;;;;4983126;28;20121;-71
2023/11/06 00:20:44;;;;;;;10.00;6.40;;;15.50;99.90;;;;;;5000958;28;20057;-72
2023/11/06 00:23:11;;;;;;;9.52;5.22;;;15.00;99.90;;;;;;5000363;28;20041;-73
2023/11/06 00:25:39;;;;;;;12.23;5.72;;;15.00;99.90;;;;;;4996895;28;20489;-68
2023/11/06 00:28:06;;;;;;;8.82;5.93;;;15.00;99.90;;;;;;4996151;28;20041;-70
2023/11/06 00:30:33;;;;;;;12.20;6.53;;;14.90;99.90;;;;;;5015884;28;20046;-69
2023/11/06 00:33:00;;;;;;;9.55;6.38;;;14.70;99.90;;;;;;5004026;28;20038;-71
2023/11/06 00:35:28;;;;;;;13.05;7.07;;;14.70;99.90;;;;;;4997112;28;20108;-70
2023/11/06 00:37:55;;;;;;;15.85;8.13;;;14.70;99.90;;;;;;5013353;28;20038;-71
2023/11/06 00:40:22;;;;;;;11.30;7.25;;;14.60;99.90;;;;;;5016168;28;20140;-69
2023/11/06 00:42:49;;;;;;;13.30;7.53;;;14.60;99.90;;;;;;5001357;28;20029;-72
2023/11/06 00:45:17;;;;;;;10.88;7.65;;;14.60;99.90;;;;;;4992831;28;20041;-71
2023/11/06 00:47:44;;;;;;;108.40;64.03;;;14.50;99.90;;;;;;4907359;28;20041;-70
2023/11/06 00:50:11;;;;;;;125.63;71.30;;;14.70;99.90;;;;;;5021926;28;20060;-71
2023/11/06 00:52:39;;;;;;;27.75;18.02;;;14.80;99.90;;;;;;5021244;28;20053;-72
2023/11/06 00:55:06;;;;;;;14.07;8.20;;;14.70;99.90;;;;;;5009542;28;20034;-70
2023/11/06 00:57:34;;;;;;;12.15;7.43;;;14.70;99.90;;;;;;5013293;28;20378;-69
2023/11/06 01:00:02;;;;;;;10.48;6.18;;;14.70;99.90;;;;;;5021841;28;20053;-69
2023/11/06 01:02:30;;;;;;;28.45;18.27;;;14.60;99.90;;;;;;5011467;28;20038;-71
2023/11/06 01:04:57;;;;;;;155.85;97.13;;;14.70;99.90;;;;;;5033018;28;20033;-71
2023/11/06 01:07:25;;;;;;;21.38;15.98;;;14.80;99.90;;;;;;5019795;28;20056;-72
2023/11/06 01:09:52;;;;;;;12.73;8.05;;;14.80;99.90;;;;;;5010711;28;20048;-71
2023/11/06 01:12:20;;;;;;;11.95;6.78;;;14.80;99.90;;;;;;5025293;28;20045;-71
2023/11/06 01:14:48;;;;;;;10.23;6.03;;;14.80;99.90;;;;;;5015010;28;20045;-73
2023/11/06 01:17:16;;;;;;;9.23;5.43;;;14.80;99.90;;;;;;5015396;28;20057;-71
2023/11/06 01:19:43;;;;;;;8.48;6.30;;;14.80;99.90;;;;;;5019921;28;20041;-70
2023/11/06 01:22:10;;;;;;;10.63;6.63;;;14.90;99.90;;;;;;5020305;28;20525;-72
2023/11/06 01:24:37;;;;;;;11.70;6.43;;;14.90;99.90;;;;;;5017248;28;20038;-70
2023/11/06 01:27:05;;;;;;;14.88;7.03;;;14.90;99.90;;;;;;5018589;28;20061;-71
2023/11/06 01:29:32;;;;;;;9.20;6.80;;;15.00;99.90;;;;;;5016248;28;20440;-69
2023/11/06 01:31:59;;;;;;;14.70;7.20;;;14.90;99.90;;;;;;5016055;28;20042;-69
2023/11/06 01:34:27;;;;;;;9.30;6.28;;;14.80;99.90;;;;;;5016622;28;20089;-70
2023/11/06 01:36:54;;;;;;;12.00;6.75;;;14.80;99.90;;;;;;5030686;28;20393;-71
2023/11/06 01:39:22;;;;;;;10.55;6.88;;;14.80;99.90;;;;;;5023646;28;20478;-71
2023/11/06 01:41:49;;;;;;;9.00;6.60;;;14.80;99.90;;;;;;5017026;28;20196;-72
2023/11/06 01:44:17;;;;;;;10.50;6.75;;;14.70;99.90;;;;;;5020817;28;20048;-72
2023/11/06 01:46:45;;;;;;;10.95;6.88;;;14.70;99.90;;;;;;5017393;28;20389;-72
2023/11/06 01:49:15;;;;;;;11.50;7.00;;;14.70;99.90;;;;;;5018941;28;20038;-70
2023/11/06 01:51:42;;;;;;;11.77;7.18;;;14.70;99.90;;;;;;5000088;28;20042;-71
2023/11/06 01:54:12;;;;;;;14.13;7.90;;;14.70;99.90;;;;;;5023285;28;20054;-72
2023/11/06 01:56:40;;;;;;;10.65;7.25;;;14.60;99.90;;;;;;5016405;28;20049;-71
2023/11/06 01:59:08;;;;;;;10.65;6.85;;;14.60;99.90;;;;;;5012625;28;20037;-72
2023/11/06 02:01:40;;;;;;;8.93;5.72;;;14.60;99.90;;;;;;5017533;28;20045;-71
2023/11/06 02:04:12;;;;;;;8.93;5.65;;;14.60;99.90;;;;;;5019754;28;20050;-72
2023/11/06 02:06:40;;;;;;;9.32;5.68;;;14.60;99.90;;;;;;5015650;28;20126;-69
2023/11/06 02:09:07;;;;;;;9.70;5.07;;;14.60;99.90;;;;;;5001591;28;20472;-70
2023/11/06 02:11:35;;;;;;;9.27;5.28;;;14.70;99.90;;;;;;5018548;28;20069;-71
2023/11/06 02:14:02;;;;;;;9.88;6.00;;;14.60;99.90;;;;;;5018399;28;20126;-70
2023/11/06 02:16:33;;;;;;;9.95;5.90;;;14.60;99.90;;;;;;5019392;28;20030;-70
2023/11/06 02:19:02;;;;;;;9.77;5.50;;;14.60;99.90;;;;;;5019574;28;20121;-71
2023/11/06 02:21:29;;;;;;;9.05;5.10;;;14.60;99.90;;;;;;5019975;28;20042;-69
2023/11/06 02:23:56;;;;;;;9.20;4.85;;;14.60;99.90;;;;;;5017005;28;20037;-70
2023/11/06 02:26:24;;;;;;;10.20;5.00;;;14.60;99.90;;;;;;5024413;28;20045;-70
2023/11/06 02:28:52;;;;;;;8.43;5.82;;;14.60;99.90;;;;;;5014969;28;20042;-70
2023/11/06 02:31:19;;;;;;;12.10;6.82;;;14.50;99.90;;;;;;5016918;28;20046;-71
2023/11/06 02:33:47;;;;;;;16.05;9.35;;;14.40;99.90;;;;;;5017921;28;20045;-69
2023/11/06 02:36:14;;;;;;;18.45;10.70;;;14.30;99.90;;;;;;5011852;28;20092;-70
2023/11/06 02:38:41;;;;;;;16.02;10.90;;;14.20;99.90;;;;;;5014833;28;20033;-71
2023/11/06 02:41:09;;;;;;;15.32;10.43;;;14.10;99.90;;;;;;5021447;28;20468;-73
2023/11/06 02:43:36;;;;;;;16.23;10.25;;;14.00;99.90;;;;;;5014993;28;20044;-72
2023/11/06 02:46:03;;;;;;;19.08;10.10;;;14.00;99.90;;;;;;5021569;28;20045;-71
2023/11/06 02:48:31;;;;;;;13.30;9.60;;;13.90;99.90;;;;;;5021771;28;20474;-71
2023/11/06 02:50:58;;;;;;;18.42;9.50;;;13.90;99.90;;;;;;5021655;28;20095;-71
2023/11/06 02:53:26;;;;;;;12.30;8.10;;;13.80;99.90;;;;;;5016794;28;20549;-71
2023/11/06 02:55:53;;;;;;;9.88;6.72;;;13.80;99.90;;;;;;5012456;28;20038;-71
2023/11/06 02:58:22;;;;;;;13.02;7.57;;;13.80;99.90;;;;;;5022640;28;20042;-71
2023/11/06 03:00:49;;;;;;;12.35;7.63;;;13.80;99.90;;;;;;5018907;28;20146;-69
2023/11/06 03:03:16;;;;;;;12.68;7.88;;;13.70;99.90;;;;;;5015461;28;20049;-70
2023/11/06 03:05:43;;;;;;;9.43;6.43;;;13.80;99.90;;;;;;5020241;28;20045;-72
2023/11/06 03:08:11;;;;;;;12.18;7.90;;;13.80;99.90;;;;;;5015973;28;20386;-70
2023/11/06 03:10:38;;;;;;;9.93;7.18;;;13.80;99.90;;;;;;5009254;28;20291;-69
2023/11/06 03:13:07;;;;;;;11.32;6.90;;;13.80;99.90;;;;;;5021175;28;20038;-71
2023/11/06 03:15:35;;;;;;;11.90;7.45;;;13.80;99.90;;;;;;5021948;28;20037;-68
2023/11/06 03:18:03;;;;;;;10.45;6.85;;;13.80;99.90;;;;;;5014726;28;20178;-70
2023/11/06 03:20:30;;;;;;;10.85;6.30;;;13.80;99.90;;;;;;5018744;28;20041;-69
2023/11/06 03:22:58;;;;;;;10.77;7.05;;;13.90;99.90;;;;;;5017470;28;20068;-70
2023/11/06 03:25:25;;;;;;;12.40;7.03;;;13.70;99.90;;;;;;5013202;28;20435;-69
2023/11/06 03:27:52;;;;;;;10.48;6.85;;;13.60;99.90;;;;;;5019565;28;20375;-71
2023/11/06 03:30:19;;;;;;;12.55;7.63;;;13.60;99.90;;;;;;5021635;28;20050;-70
2023/11/06 03:32:47;;;;;;;11.57;7.35;;;13.70;99.90;;;;;;5019277;28;20574;-71
2023/11/06 03:35:14;;;;;;;9.32;6.82;;;13.60;99.90;;;;;;5012883;28;20049;-70
2023/11/06 03:37:43;;;;;;;8.15;5.50;;;13.60;99.90;;;;;;5019225;28;20052;-70
2023/11/06 03:40:11;;;;;;;7.20;5.47;;;13.70;99.90;;;;;;5011742;28;20045;-68
2023/11/06 03:42:38;;;;;;;11.15;5.82;;;13.70;99.90;;;;;;5015595;28;20042;-70
2023/11/06 03:45:05;;;;;;;9.40;5.30;;;13.70;99.90;;;;;;5016166;28;20452;-68
2023/11/06 03:47:33;;;;;;;7.43;4.60;;;13.80;99.90;;;;;;5020517;28;20045;-70
2023/11/06 03:50:01;;;;;;;8.98;5.78;;;14.00;99.90;;;;;;5028155;28;20088;-71
2023/11/06 03:52:28;;;;;;;10.35;7.30;;;13.90;99.90;;;;;;5020659;28;20132;-70
2023/11/06 03:54:55;;;;;;;10.65;6.68;;;13.80;99.90;;;;;;5019743;28;20048;-72
2023/11/06 03:57:23;;;;;;;14.68;7.05;;;13.50;99.90;;;;;;5010510;28;20479;-71
2023/11/06 03:59:51;;;;;;;9.32;7.00;;;13.30;99.90;;;;;;5018640;28;20065;-70
2023/11/06 04:02:18;;;;;;;11.23;7.03;;;13.20;99.90;;;;;;5020614;28;20549;-70
2023/11/06 04:04:49;;;;;;;11.88;7.30;;;13.10;99.90;;;;;;5020308;28;20041;-69
2023/11/06 04:07:16;;;;;;;9.55;6.30;;;13.10;99.90;;;;;;5019782;28;20052;-69
2023/11/06 04:09:44;;;;;;;9.60;5.55;;;13.30;99.90;;;;;;5017416;28;20503;-70
2023/11/06 04:12:11;;;;;;;14.75;6.00;;;13.40;99.90;;;;;;5020532;28;20077;-69
2023/11/06 04:14:39;;;;;;;7.72;5.50;;;13.40;99.90;;;;;;5010918;28;20045;-69
2023/11/06 04:17:06;;;;;;;13.80;6.82;;;13.50;99.90;;;;;;5012939;28;20037;-70
2023/11/06 04:19:33;;;;;;;9.73;6.85;;;13.40;99.90;;;;;;5020823;28;20095;-68
2023/11/06 04:22:00;;;;;;;9.30;6.65;;;13.20;99.90;;;;;;5014852;28;20037;-69
2023/11/06 04:24:27;;;;;;;14.30;7.13;;;13.20;99.90;;;;;;5017281;28;20034;-70
2023/11/06 04:26:55;;;;;;;10.75;7.30;;;13.20;99.90;;;;;;5030579;28;20401;-70
2023/11/06 04:29:22;;;;;;;11.98;7.78;;;13.10;99.90;;;;;;5017460;28;20567;-70
2023/11/06 04:31:49;;;;;;;9.77;6.50;;;13.10;99.90;;;;;;5012778;28;20050;-69
2023/11/06 04:34:16;;;;;;;11.50;7.30;;;13.10;99.90;;;;;;5021572;28;20045;-69
2023/11/06 04:36:44;;;;;;;9.32;6.63;;;13.00;99.90;;;;;;5008099;28;20537;-70
2023/11/06 04:39:11;;;;;;;12.93;6.75;;;13.00;99.90;;;;;;5010906;28;20056;-70
2023/11/06 04:41:39;;;;;;;7.85;5.28;;;13.00;99.90;;;;;;5021223;28;20485;-70
2023/11/06 04:44:07;;;;;;;8.30;5.38;;;13.00;99.90;;;;;;5011725;28;20120;-70
2023/11/06 04:46:34;;;;;;;8.38;5.32;;;13.20;99.90;;;;;;5012748;28;20044;-70
2023/11/06 04:49:02;;;;;;;9.15;6.15;;;13.00;99.90;;;;;;5017762;28;20117;-67
2023/11/06 04:51:29;;;;;;;12.02;6.72;;;12.90;99.90;;;;;;5017982;28;20049;-70
2023/11/06 04:53:56;;;;;;;11.52;6.93;;;12.80;99.90;;;;;;5018919;28;20049;-69
2023/11/06 04:56:24;;;;;;;9.95;6.68;;;12.80;99.90;;;;;;5012864;28;20079;-71
2023/11/06 04:58:51;;;;;;;10.02;5.95;;;12.80;99.90;;;;;;5019096;28;20083;-70
2023/11/06 05:01:19;;;;;;;10.65;6.13;;;12.80;99.90;;;;;;5022459;28;20046;-70
2023/11/06 05:03:46;;;;;;;9.60;6.13;;;13.00;99.90;;;;;;5020452;28;20038;-69
2023/11/06 05:06:13;;;;;;;10.75;7.10;;;13.00;99.90;;;;;;5024615;28;20398;-70
2023/11/06 05:08:40;;;;;;;10.63;7.18;;;12.90;99.90;;;;;;5021550;28;20394;-70
2023/11/06 05:11:08;;;;;;;9.55;7.88;;;13.00;99.90;;;;;;5021513;28;20052;-69
2023/11/06 05:13:35;;;;;;;13.63;8.45;;;12.90;99.90;;;;;;5021206;28;20516;-71
2023/11/06 05:16:04;;;;;;;13.73;8.32;;;12.90;99.90;;;;;;5021135;28;20477;-70
2023/11/06 05:18:31;;;;;;;12.88;8.23;;;12.90;99.90;;;;;;5023242;28;20126;-70
2023/11/06 05:21:00;;;;;;;15.20;8.93;;;12.90;99.90;;;;;;5006464;28;20498;-72
2023/11/06 05:23:27;;;;;;;14.68;8.75;;;12.80;99.90;;;;;;5021688;28;20051;-71
2023/11/06 05:25:54;;;;;;;12.40;9.23;;;12.80;99.90;;;;;;5021725;28;20120;-72
2023/11/06 05:28:22;;;;;;;13.48;9.48;;;12.80;99.90;;;;;;5018727;28;20141;-71
2023/11/06 05:30:49;;;;;;;13.55;9.18;;;12.80;99.90;;;;;;5017946;28;20048;-71
2023/11/06 05:33:17;;;;;;;14.88;9.60;;;12.80;99.90;;;;;;5021979;28;20041;-71
2023/11/06 05:35:44;;;;;;;13.05;8.82;;;12.80;99.90;;;;;;5025588;28;20046;-70
2023/11/06 05:38:12;;;;;;;13.75;9.05;;;12.70;99.90;;;;;;5041176;28;20050;-72
2023/11/06 05:40:39;;;;;;;14.02;8.55;;;12.50;99.90;;;;;;5011365;28;20099;-71
2023/11/06 05:43:07;;;;;;;14.20;7.75;;;12.40;99.90;;;;;;5022735;28;20048;-68
2023/11/06 05:45:34;;;;;;;12.43;8.35;;;12.40;99.90;;;;;;5016398;28;21465;-69
2023/11/06 05:48:01;;;;;;;10.27;8.05;;;12.40;99.90;;;;;;5021138;28;20117;-70
2023/11/06 05:50:30;;;;;;;14.80;8.45;;;12.50;99.90;;;;;;5020077;28;20140;-69
2023/11/06 05:52:58;;;;;;;13.35;9.38;;;12.60;99.90;;;;;;5023028;28;20049;-69
2023/11/06 05:55:25;;;;;;;16.25;9.40;;;12.50;99.90;;;;;;5020418;28;20049;-72
2023/11/06 05:57:52;;;;;;;12.48;9.07;;;12.60;99.90;;;;;;5021640;28;20041;-71
2023/11/06 06:00:20;;;;;;;12.70;8.60;;;12.70;99.90;;;;;;5017869;28;20453;-69
2023/11/06 06:02:47;;;;;;;43.28;27.02;;;12.70;99.90;;;;;;5020164;28;20403;-69
2023/11/06 06:05:14;;;;;;;59.17;40.03;;;12.70;99.90;;;;;;5015040;28;20447;-68
2023/11/06 06:07:43;;;;;;;30.42;19.50;;;13.00;99.90;;;;;;5019376;28;20065;-71
2023/11/06 06:10:12;;;;;;;12.05;9.10;;;13.10;99.90;;;;;;5020920;28;20721;-70
2023/11/06 06:12:40;;;;;;;9.27;6.13;;;13.10;99.90;;;;;;5016069;28;20041;-72
2023/11/06 06:15:08;;;;;;;10.60;6.38;;;13.20;99.90;;;;;;5019759;28;20037;-71
2023/11/06 06:17:37;;;;;;;10.10;6.72;;;13.20;99.90;;;;;;5031428;28;20053;-69
2023/11/06 06:20:07;;;;;;;11.63;7.03;;;13.30;99.90;;;;;;5030317;28;20056;-73
2023/11/06 06:22:35;;;;;;;9.32;6.22;;;13.30;99.90;;;;;;5016390;28;20132;-71
2023/11/06 06:25:03;;;;;;;10.88;6.50;;;13.40;99.90;;;;;;4994858;28;20425;-72
2023/11/06 06:27:30;;;;;;;12.43;6.68;;;13.40;99.90;;;;;;5021220;28;20050;-71
2023/11/06 06:29:58;;;;;;;12.23;6.95;;;13.50;99.90;;;;;;5012202;28;20049;-71
2023/11/06 06:32:25;;;;;;;13.05;6.95;;;13.50;99.90;;;;;;5020386;28;20457;-72
2023/11/06 06:34:53;;;;;;;10.43;6.75;;;13.50;99.90;;;;;;5020388;28;20413;-73
2023/11/06 06:37:20;;;;;;;10.25;6.68;;;13.40;99.90;;;;;;5020040;28;20402;-73
2023/11/06 06:39:47;;;;;;;14.48;7.57;;;13.40;99.90;;;;;;5017710;28;20034;-73
2023/11/06 06:42:16;;;;;;;13.60;7.07;;;13.50;99.90;;;;;;5019048;28;20393;-72
2023/11/06 06:44:43;;;;;;;13.48;6.55;;;13.50;99.90;;;;;;5020334;28;20393;-71
2023/11/06 06:47:12;;;;;;;16.45;8.20;;;13.50;99.90;;;;;;5013780;28;20124;-70
2023/11/06 06:49:40;;;;;;;16.85;7.60;;;13.60;99.90;;;;;;5014948;28;20515;-70
2023/11/06 06:52:08;;;;;;;15.98;7.53;;;13.70;99.90;;;;;;5017041;28;20050;-71
2023/11/06 06:54:36;;;;;;;13.23;6.80;;;13.90;99.90;;;;;;5021691;28;20456;-70
2023/11/06 06:57:05;;;;;;;14.65;6.40;;;14.10;99.90;;;;;;5017292;28;20041;-72
2023/11/06 06:59:34;;;;;;;10.60;5.60;;;14.20;99.90;;;;;;5015115;28;20494;-70
2023/11/06 07:02:01;;;;;;;11.35;5.93;;;14.30;99.90;;;;;;5015799;28;20047;-71
2023/11/06 07:04:28;;;;;;;10.73;5.80;;;14.40;99.90;;;;;;5019698;28;20041;-71
2023/11/06 07:06:56;;;;;;;12.88;6.63;;;14.50;99.90;;;;;;5011414;28;20397;-71
2023/11/06 07:09:25;;;;;;;12.13;6.80;;;14.60;99.90;;;;;;5023160;28;20058;-72
2023/11/06 07:11:53;;;;;;;13.57;5.75;;;14.60;99.90;;;;;;5026539;28;20513;-72
2023/11/06 07:14:20;;;;;;;12.75;5.03;;;14.50;99.90;;;;;;5028149;28;20569;-72
2023/11/06 07:16:48;;;;;;;8.38;5.40;;;14.50;99.90;;;;;;5012902;28;20103;-74
2023/11/06 07:19:17;;;;;;;10.48;5.05;;;14.70;99.90;;;;;;5027868;28;20464;-71
2023/11/06 07:21:45;;;;;;;10.32;5.00;;;14.80;99.90;;;;;;5013051;28;20050;-73
2023/11/06 07:24:12;;;;;;;7.60;4.97;;;15.00;99.90;;;;;;5015442;28;20042;-71
2023/11/06 07:26:39;;;;;;;19.17;8.32;;;15.10;99.90;;;;;;5015026;28;20034;-73
2023/11/06 07:29:06;;;;;;;14.90;8.63;;;15.30;99.90;;;;;;5011777;28;20073;-73
2023/11/06 07:31:34;;;;;;;8.68;5.32;;;15.50;99.90;;;;;;5010535;28;20425;-72
2023/11/06 07:34:01;;;;;;;10.30;4.43;;;15.50;99.90;;;;;;5028695;28;20151;-72
2023/11/06 07:36:28;;;;;;;8.88;4.38;;;15.50;99.90;;;;;;5010992;28;20513;-71
2023/11/06 07:38:56;;;;;;;8.75;4.78;;;15.60;99.90;;;;;;5014365;28;20046;-72
2023/11/06 07:41:24;;;;;;;7.72;4.53;;;15.50;99.90;;;;;;5013417;28;20048;-72
2023/11/06 07:43:51;;;;;;;9.48;5.38;;;15.40;99.90;;;;;;5019943;28;20042;-72
2023/11/06 07:46:19;;;;;;;11.70;5.55;;;15.50;99.90;;;;;;5018741;28;20041;-71
2023/11/06 07:48:47;;;;;;;8.30;5.13;;;15.50;99.90;;;;;;5020930;28;20049;-72
2023/11/06 07:51:14;;;;;;;15.73;5.50;;;15.50;99.90;;;;;;4997678;28;20052;-69
2023/11/06 07:53:42;;;;;;;9.48;5.32;;;15.60;99.90;;;;;;5017771;28;20046;-72
2023/11/06 07:56:09;;;;;;;9.88;4.82;;;15.60;99.90;;;;;;5016911;28;20040;-71
2023/11/06 07:58:36;;;;;;;10.20;5.50;;;15.70;99.90;;;;;;5018661;28;20128;-72
2023/11/06 08:01:04;;;;;;;10.02;5.35;;;15.70;99.90;;;;;;5019343;28;20473;-73
2023/11/06 08:03:32;;;;;;;9.32;5.72;;;15.70;99.90;;;;;;5010796;28;20141;-73
2023/11/06 08:05:59;;;;;;;15.63;6.97;;;15.80;99.90;;;;;;5016913;28;20481;-73
2023/11/06 08:08:26;;;;;;;12.77;5.80;;;15.90;99.90;;;;;;5027345;28;20038;-72
2023/11/06 08:10:54;;;;;;;12.00;6.03;;;16.10;99.90;;;;;;5017895;28;20034;-73
2023/11/06 08:13:21;;;;;;;9.95;5.82;;;16.40;99.90;;;;;;5020191;28;20103;-71
2023/11/06 08:15:48;;;;;;;10.73;6.32;;;16.60;99.90;;;;;;5026926;28;20145;-70
2023/11/06 08:18:16;;;;;;;13.32;6.97;;;16.70;99.90;;;;;;5024382;28;20041;-71
2023/11/06 08:20:43;;;;;;;11.75;6.55;;;16.80;99.90;;;;;;5037676;28;20092;-71
2023/11/06 08:23:11;;;;;;;13.35;6.13;;;16.90;99.90;;;;;;5011227;28;20497;-71
2023/11/06 08:25:39;;;;;;;12.10;5.90;;;17.10;99.90;;;;;;5018527;28;20384;-71
2023/11/06 08:28:06;;;;;;;8.00;5.45;;;17.30;99.90;;;;;;5011007;28;20049;-72
2023/11/06 08:30:36;;;;;;;14.88;6.20;;;17.40;99.90;;;;;;5027097;28;20136;-72
2023/11/06 08:33:03;;;;;;;10.30;5.47;;;17.50;99.90;;;;;;5023059;28;20037;-72
2023/11/06 08:35:30;;;;;;;14.90;5.82;;;17.60;99.90;;;;;;5020983;28;20525;-73
2023/11/06 08:38:00;;;;;;;16.05;5.20;;;17.70;99.90;;;;;;5021916;28;20037;-72
2023/11/06 08:40:29;;;;;;;9.82;4.75;;;17.80;99.90;;;;;;5020436;28;20436;-70
2023/11/06 08:42:56;;;;;;;10.57;5.68;;;17.80;99.90;;;;;;5024387;28;20037;-70
2023/11/06 08:45:23;;;;;;;10.32;4.40;;;17.80;99.90;;;;;;5033111;28;20453;-73
2023/11/06 08:47:51;;;;;;;7.18;3.58;;;18.00;99.90;;;;;;5018991;28;20044;-74
2023/11/06 08:50:18;;;;;;;7.50;4.05;;;18.00;99.90;;;;;;5020279;28;20041;-72
2023/11/06 08:52:45;;;;;;;10.25;4.45;;;18.30;99.90;;;;;;5021472;28;20064;-72
2023/11/06 08:55:13;;;;;;;10.02;5.05;;;18.50;99.90;;;;;;5021069;28;20033;-72
2023/11/06 08:57:42;;;;;;;8.13;3.63;;;18.50;99.90;;;;;;5012696;28;20042;-71
2023/11/06 09:00:11;;;;;;;10.63;5.70;;;18.50;99.90;;;;;;5031190;28;20046;-72
2023/11/06 09:02:38;;;;;;;10.38;4.82;;;18.50;99.90;;;;;;5021315;28;20037;-73
2023/11/06 09:05:06;;;;;;;10.65;4.05;;;18.60;99.90;;;;;;5026809;28;20038;-71
2023/11/06 09:07:34;;;;;;;9.52;5.35;;;18.80;99.90;;;;;;5019093;28;20054;-70
2023/11/06 09:10:01;;;;;;;8.63;4.40;;;19.00;99.90;;;;;;5023520;28;20034;-71
2023/11/06 09:12:28;;;;;;;8.73;3.25;;;19.10;99.90;;;;;;5019389;28;20510;-70
2023/11/06 09:14:57;;;;;;;5.85;3.17;;;19.20;99.90;;;;;;5019401;28;20044;-69
2023/11/06 09:17:24;;;;;;;5.57;2.95;;;19.20;99.90;;;;;;5021714;28;20091;-71
2023/11/06 09:19:51;;;;;;;7.10;3.05;;;19.40;99.90;;;;;;5022873;28;20053;-71
2023/11/06 09:22:19;;;;;;;9.20;3.97;;;19.50;99.90;;;;;;5016531;28;20041;-71
2023/11/06 09:24:47;;;;;;;13.10;4.03;;;19.60;99.90;;;;;;5018522;28;20071;-70
2023/11/06 09:27:14;;;;;;;9.95;3.22;;;19.80;99.90;;;;;;5013893;28;20050;-71
2023/11/06 09:29:42;;;;;;;12.38;3.80;;;19.90;99.90;;;;;;5018690;28;20038;-68
2023/11/06 09:32:11;;;;;;;9.52;4.45;;;20.20;99.90;;;;;;5019950;28;20117;-69
2023/11/06 09:34:38;;;;;;;9.57;3.92;;;20.30;99.90;;;;;;5022554;28;20057;-68
2023/11/06 09:37:05;;;;;;;8.77;3.03;;;20.50;99.90;;;;;;5020526;28;20399;-70
2023/11/06 09:39:34;;;;;;;6.63;2.97;;;20.50;99.90;;;;;;5019608;28;20038;-71
2023/11/06 09:42:02;;;;;;;5.80;2.80;;;20.50;99.90;;;;;;5021195;28;20088;-73
2023/11/06 09:44:29;;;;;;;10.00;6.22;;;20.50;99.90;;;;;;5023689;28;20159;-72
2023/11/06 09:46:58;;;;;;;7.30;4.03;;;20.60;99.90;;;;;;5018017;28;20445;-71
2023/11/06 09:49:29;;;;;;;9.00;3.22;;;20.70;99.90;;;;;;5021250;28;20068;-73
2023/11/06 09:52:03;;;;;;;6.15;2.45;;;20.90;99.90;;;;;;5018428;28;20041;-71
2023/11/06 09:54:30;;;;;;;9.13;3.03;;;20.80;99.90;;;;;;5017289;28;20038;-74
2023/11/06 09:56:58;;;;;;;8.63;2.85;;;21.10;99.90;;;;;;5023706;28;20045;-75
2023/11/06 09:59:25;;;;;;;12.68;6.53;;;21.20;99.90;;;;;;5013228;28;20054;-70
2023/11/06 10:01:53;;;;;;;9.90;5.63;;;21.40;99.90;;;;;;5012592;28;20050;-73
2023/11/06 10:04:21;;;;;;;8.40;2.85;;;21.70;99.90;;;;;;5001621;28;20077;-73
2023/11/06 10:06:50;;;;;;;9.07;3.13;;;21.60;99.90;;;;;;5001902;28;20037;-73
2023/11/06 10:09:24;;;;;;;5.63;2.60;;;21.60;99.90;;;;;;5015809;28;20117;-74
2023/11/06 10:11:57;;;;;;;7.63;2.10;;;21.80;99.90;;;;;;5013347;28;20042;-71
2023/11/06 10:14:37;;;;;;;5.85;2.28;;;21.90;99.80;;;;;;5021241;28;20041;-70
2023/11/06 10:17:04;;;;;;;7.25;2.92;;;22.10;99.40;;;;;;5011289;28;20096;-72
2023/11/06 10:19:33;;;;;;;7.30;2.88;;;22.40;99.90;;;;;;5018249;28;20046;-72
2023/11/06 10:22:14;;;;;;;9.02;2.10;;;22.30;98.40;;;;;;5016879;28;20034;-74
2023/11/06 10:24:51;;;;;;;5.40;2.50;;;22.50;97.60;;;;;;5013524;28;20058;-73
2023/11/06 10:27:33;;;;;;;5.13;2.10;;;22.60;96.50;;;;;;5009978;28;20108;-73
2023/11/06 10:30:05;;;;;;;5.03;2.05;;;23.10;96.60;;;;;;5008793;28;20069;-73
2023/11/06 10:32:33;;;;;;;5.13;1.73;;;23.50;95.40;;;;;;5016446;28;20129;-72
2023/11/06 10:35:20;;;;;;;4.93;1.90;;;23.70;94.20;;;;;;5020503;28;20088;-70
2023/11/06 10:37:48;;;;;;;7.72;2.10;;;24.10;92.70;;;;;;5017428;28;20120;-73
2023/11/06 10:40:19;;;;;;;8.70;1.98;;;24.20;91.30;;;;;;5015595;28;20046;-70
2023/11/06 10:42:50;;;;;;;4.95;1.80;;;24.50;90.80;;;;;;5003151;28;20402;-72
2023/11/06 10:45:20;;;;;;;6.72;1.90;;;24.60;89.00;;;;;;5009227;28;20093;-72
2023/11/06 10:47:56;;;;;;;7.07;2.38;;;25.60;87.30;;;;;;5005767;28;20124;-70
2023/11/06 10:50:24;;;;;;;10.73;2.28;;;26.10;84.00;;;;;;5018216;28;20050;-72
2023/11/06 10:52:54;;;;;;;8.35;1.92;;;26.00;81.70;;;;;;5013707;28;20083;-72
2023/11/06 10:55:22;;;;;;;;;;;25.20;79.60;;;;;;5020040;28;20064;-73
2023/11/06 10:58:08;;;;;;;11.00;1.95;;;24.90;79.50;;;;;;5017027;28;19917;-80
2023/11/06 11:00:36;;;;;;;4.70;1.25;;;25.20;79.40;;;;;;5030634;28;20101;-72
2023/11/06 11:03:05;;;;;;;6.88;1.70;;;25.30;79.90;;;;;;5032560;28;20384;-70
2023/11/06 11:05:33;;;;;;;5.47;1.80;;;25.40;78.80;;;;;;5020168;28;20053;-70
2023/11/06 11:08:04;;;;;;;5.82;1.63;;;25.50;78.70;;;;;;5029250;28;20041;-71
2023/11/06 11:10:31;;;;;;;7.25;1.70;;;25.50;77.00;;;;;;5027363;28;20053;-70
2023/11/06 11:13:02;;;;;;;6.07;1.90;;;25.80;77.10;;;;;;5019201;28;20057;-72
2023/11/06 11:15:34;;;;;;;8.45;3.88;;;25.90;75.20;;;;;;5017845;28;20429;-76
2023/11/06 11:18:04;;;;;;;15.77;8.85;;;26.20;75.30;;;;;;5030236;28;20046;-70
2023/11/06 11:20:52;;;;;;;12.52;3.20;;;27.00;75.30;;;;;;5020036;28;20037;-72
2023/11/06 11:23:49;;;;;;;4.95;1.90;;;27.20;74.80;;;;;;5022210;28;20046;-70
2023/11/06 11:26:17;;;;;;;7.90;1.85;;;27.80;73.00;;;;;;5014546;28;20037;-74
2023/11/06 11:28:59;;;;;;;4.53;1.23;;;28.20;72.60;;;;;;5019167;28;20497;-70
2023/11/06 11:31:47;;;;;;;3.00;1.30;;;29.50;70.80;;;;;;5017511;28;20097;-69
2023/11/06 11:34:33;;;;;;;5.35;1.50;;;31.50;66.60;;;;;;5016683;28;20444;-69
2023/11/06 11:37:28;;;;;;;5.78;1.50;;;32.30;63.80;;;;;;5026628;28;20029;-70
2023/11/06 11:39:56;;;;;;;6.60;1.83;;;33.80;61.30;;;;;;5015320;28;20092;-73
2023/11/06 11:42:24;;;;;;;3.78;1.48;;;33.80;60.00;;;;;;5029442;28;20056;-69
2023/11/06 11:44:59;;;;;;;6.65;2.22;;;33.00;58.00;;;;;;5015875;28;20046;-73
2023/11/06 11:47:46;;;;;;;4.53;1.95;;;33.30;59.50;;;;;;5013641;28;20048;-70
2023/11/06 11:50:27;;;;;;;4.90;1.25;;;34.00;56.00;;;;;;5026697;28;20057;-69
2023/11/06 11:52:55;;;;;;;8.23;1.67;;;33.80;55.00;;;;;;5018654;28;20120;-69
2023/11/06 11:55:41;;;;;;;5.90;1.92;;;34.80;54.70;;;;;;5016043;28;20496;-68
2023/11/06 11:58:11;;;;;;;6.95;1.60;;;35.80;52.50;;;;;;5018569;28;20128;-71
2023/11/06 12:00:42;;;;;;;7.47;1.70;;;36.10;52.30;;;;;;4998374;28;20408;-71
2023/11/06 12:03:12;;;;;;;4.68;1.77;;;36.10;50.30;;;;;;5014467;28;20046;-72
2023/11/06 12:05:41;;;;;;;6.80;1.50;;;36.30;50.90;;;;;;5021412;28;20041;-77
2023/11/06 12:08:17;;;;;;;5.47;1.80;;;36.60;50.00;;;;;;5009830;28;20097;-75
2023/11/06 12:10:46;;;;;;;9.48;2.55;;;36.10;49.90;;;;;;5023882;28;20038;-75
2023/11/06 12:13:23;;;;;;;6.28;1.42;;;34.90;51.70;;;;;;5020458;28;20531;-77
2023/11/06 12:15:52;;;;;;;4.55;1.40;;;34.80;51.80;;;;;;5018710;28;20193;-73
2023/11/06 12:18:23;;;;;;;;;;;33.80;52.10;;;;;;5010179;28;20044;-73
2023/11/06 12:20:56;;;;;;;6.15;1.55;;;29.80;55.80;;;;;;5017280;28;19921;-74
2023/11/06 12:23:36;;;;;;;6.82;1.77;;;33.10;54.80;;;;;;5006482;28;20108;-74
2023/11/06 12:26:12;;;;;;;9.57;2.00;;;35.20;57.70;;;;;;5015541;28;20137;-75
2023/11/06 12:28:43;;;;;;;4.75;1.48;;;35.80;51.50;;;;;;5021374;28;20049;-75
2023/11/06 12:31:11;;;;;;;5.70;1.67;;;36.70;52.20;;;;;;5020311;28;20127;-75
2023/11/06 12:33:39;;;;;;;6.53;1.20;;;37.30;52.90;;;;;;5025103;28;20041;-74
2023/11/06 12:36:07;;;;;;;5.47;1.30;;;36.90;49.50;;;;;;5018339;28;20046;-74
2023/11/06 12:38:38;;;;;;;5.05;1.60;;;36.20;50.80;;;;;;5015519;28;20045;-76
2023/11/06 12:41:07;;;;;;;3.72;1.52;;;36.30;49.30;;;;;;5022279;28;20041;-74
2023/11/06 12:43:35;;;;;;;7.80;2.03;;;37.00;48.70;;;;;;5023472;28;20408;-72
2023/11/06 12:46:02;;;;;;;6.72;1.52;;;36.60;49.00;;;;;;5021674;28;20045;-74
2023/11/06 12:48:33;;;;;;;6.03;1.58;;;35.90;50.60;;;;;;5020235;28;20033;-71